createdAt,value
2019-04-26T00:01:19.461Z,55.44
2019-04-26T00:03:50.108Z,55.46
2019-04-26T00:06:19.960Z,55.36
2019-04-26T00:08:50.930Z,55.12
2019-04-26T00:11:25.339Z,55.02
2019-04-26T00:14:14.561Z,54.75
2019-04-26T00:16:46.404Z,54.60
2019-04-26T00:19:15.968Z,54.41
2019-04-26T00:21:45.655Z,54.43
2019-04-26T00:24:15.473Z,54.36
2019-04-26T00:26:44.839Z,54.35
2019-04-26T00:29:14.763Z,54.38
2019-04-26T00:31:44.354Z,54.40
2019-04-26T00:34:13.716Z,54.55
2019-04-26T00:36:43.269Z,54.54
2019-04-26T00:39:13.324Z,54.49
2019-04-26T00:41:43.802Z,54.54
2019-04-26T00:44:13.860Z,54.54
2019-04-26T00:46:47.140Z,54.57
2019-04-26T00:49:17.844Z,54.69
2019-04-26T00:51:48.211Z,54.78
2019-04-26T00:54:20.171Z,55.01
2019-04-26T00:56:50.352Z,55.20
2019-04-26T00:59:20.852Z,55.35
2019-04-26T01:01:51.859Z,55.33
2019-04-26T01:04:23.068Z,55.55
2019-04-26T01:06:54.141Z,55.49
2019-04-26T01:09:24.122Z,55.58
2019-04-26T01:11:53.501Z,55.52
2019-04-26T01:14:22.889Z,55.58
2019-04-26T01:16:52.191Z,55.60
2019-04-26T01:19:24.554Z,55.78
2019-04-26T01:21:59.849Z,55.86
2019-04-26T01:24:32.170Z,55.88
2019-04-26T01:27:04.443Z,56.12
2019-04-26T01:29:35.919Z,56.15
2019-04-26T01:32:13.617Z,56.23
2019-04-26T01:34:45.890Z,56.22
2019-04-26T01:37:15.574Z,56.23
2019-04-26T01:39:49.540Z,56.26
2019-04-26T01:42:24.260Z,56.36
2019-04-26T01:44:58.420Z,56.28
2019-04-26T01:47:28.426Z,56.36
2019-04-26T01:49:58.444Z,56.27
2019-04-26T01:52:27.856Z,56.28
2019-04-26T01:55:15.495Z,56.37
2019-04-26T01:57:44.892Z,56.32
2019-04-26T02:00:32.989Z,56.35
2019-04-26T02:03:04.024Z,56.41
2019-04-26T02:05:33.457Z,56.44
2019-04-26T02:08:02.919Z,56.44
2019-04-26T02:10:32.750Z,56.78
2019-04-26T02:13:02.364Z,56.74
2019-04-26T02:15:33.643Z,56.89
2019-04-26T02:18:04.293Z,57.00
2019-04-26T02:20:45.431Z,57.08
2019-04-26T02:23:32.127Z,57.36
2019-04-26T02:26:19.415Z,57.42
2019-04-26T02:28:51.094Z,57.51
2019-04-26T02:31:22.416Z,57.62
2019-04-26T02:33:52.989Z,57.54
2019-04-26T02:36:23.298Z,57.73
2019-04-26T02:38:55.711Z,57.66
2019-04-26T02:41:27.439Z,57.86
2019-04-26T02:43:59.778Z,57.88
2019-04-26T02:46:34.895Z,57.97
2019-04-26T02:49:07.432Z,58.20
2019-04-26T02:51:42.263Z,58.34
2019-04-26T02:54:47.615Z,58.43
2019-04-26T02:57:29.758Z,58.59
2019-04-26T03:00:05.956Z,58.74
2019-04-26T03:02:37.280Z,58.93
2019-04-26T03:05:08.709Z,59.36
2019-04-26T03:07:49.628Z,59.25
2019-04-26T03:10:21.899Z,59.38
2019-04-26T03:12:54.222Z,59.50
2019-04-26T03:15:38.796Z,59.36
2019-04-26T03:18:31.717Z,59.45
2019-04-26T03:21:07.896Z,59.39
2019-04-26T03:23:57.546Z,59.46
2019-04-26T03:26:37.486Z,59.40
2019-04-26T03:29:10.924Z,59.42
2019-04-26T03:32:05.637Z,59.65
2019-04-26T03:34:54.184Z,59.67
2019-04-26T03:37:34.489Z,59.87
2019-04-26T03:40:36.193Z,59.83
2019-04-26T03:43:08.065Z,59.92
2019-04-26T03:46:03.879Z,59.88
2019-04-26T03:49:01.347Z,60.05
2019-04-26T03:51:43.047Z,59.92
2019-04-26T03:54:18.934Z,59.88
2019-04-26T03:56:53.545Z,60.02
2019-04-26T03:59:36.800Z,59.98
2019-04-26T04:02:11.815Z,59.86
2019-04-26T04:04:57.667Z,59.81
2019-04-26T04:07:39.407Z,59.64
2019-04-26T04:10:15.534Z,59.61
2019-04-26T04:13:03.086Z,59.54
2019-04-26T04:15:37.924Z,59.47
2019-04-26T04:18:11.002Z,59.40
2019-04-26T04:21:14.251Z,59.22
2019-04-26T04:23:58.662Z,59.15
2019-04-26T04:26:36.264Z,59.09
2019-04-26T04:29:42.813Z,58.97
2019-04-26T04:32:27.778Z,58.84
2019-04-26T04:35:00.048Z,58.75
2019-04-26T04:37:32.368Z,58.70
2019-04-26T04:40:17.921Z,58.47
2019-04-26T04:42:57.540Z,58.36
2019-04-26T04:45:45.513Z,58.28
2019-04-26T04:48:18.765Z,58.17
2019-04-26T04:51:10.830Z,57.94
2019-04-26T04:54:01.341Z,57.87
2019-04-26T04:56:54.585Z,57.74
2019-04-26T04:59:50.287Z,57.68
2019-04-26T05:02:48.647Z,57.18
2019-04-26T05:05:31.251Z,56.64
2019-04-26T05:08:09.250Z,56.00
2019-04-26T05:10:48.233Z,55.44
2019-04-26T05:13:32.135Z,54.86
2019-04-26T05:16:34.834Z,54.31
2019-04-26T05:19:29.213Z,54.05
2019-04-26T05:22:13.742Z,53.56
2019-04-26T05:24:49.104Z,53.11
2019-04-26T05:27:39.585Z,53.00
2019-04-26T05:30:34.337Z,52.74
2019-04-26T05:33:09.393Z,52.38
2019-04-26T05:35:53.114Z,52.03
2019-04-26T05:38:28.354Z,51.67
2019-04-26T05:41:17.666Z,51.47
2019-04-26T05:44:03.406Z,51.28
2019-04-26T05:47:16.458Z,50.87
2019-04-26T05:50:05.411Z,50.16
2019-04-26T05:52:53.541Z,49.66
2019-04-26T05:55:39.167Z,49.30
2019-04-26T05:58:11.514Z,48.44
2019-04-26T06:00:54.336Z,48.19
2019-04-26T06:03:39.375Z,47.50
2019-04-26T06:06:21.992Z,46.94
2019-04-26T06:09:01.698Z,46.55
2019-04-26T06:11:38.850Z,45.37
2019-04-26T06:14:18.520Z,45.07
2019-04-26T06:17:07.202Z,44.90
2019-04-26T06:19:43.848Z,44.96
2019-04-26T06:22:17.258Z,44.53
2019-04-26T06:28:04.959Z,46.04
2019-04-26T06:31:04.731Z,46.25
2019-04-26T06:33:37.057Z,46.09
2019-04-26T06:36:11.132Z,45.99
2019-04-26T06:39:13.942Z,46.23
2019-04-26T06:42:13.761Z,46.16
2019-04-26T06:45:00.418Z,46.51
2019-04-26T06:47:43.686Z,46.24
2019-04-26T06:50:38.556Z,46.00
2019-04-26T06:53:23.749Z,45.87
2019-04-26T06:56:15.505Z,45.65
2019-04-26T06:58:57.870Z,44.70
2019-04-26T07:01:45.177Z,44.03
2019-04-26T07:04:26.149Z,43.48
2019-04-26T07:07:01.078Z,43.10
2019-04-26T07:09:36.080Z,42.65
2019-04-26T07:12:15.505Z,42.18
2019-04-26T07:15:03.827Z,42.43
2019-04-26T07:17:39.150Z,42.10
2019-04-26T07:20:13.066Z,41.54
2019-04-26T07:22:52.757Z,41.00
2019-04-26T07:25:32.449Z,40.10
2019-04-26T07:28:19.765Z,40.66
2019-04-26T07:30:57.565Z,40.70
2019-04-26T07:33:49.213Z,40.59
2019-04-26T07:36:21.490Z,40.57
2019-04-26T07:39:19.949Z,39.94
2019-04-26T07:42:01.764Z,39.56
2019-04-26T07:44:53.545Z,39.64
2019-04-26T07:47:42.439Z,38.88
2019-04-26T07:50:29.327Z,39.41
2019-04-26T07:53:26.958Z,39.21
2019-04-26T07:56:07.988Z,39.29
2019-04-26T07:59:15.015Z,38.84
2019-04-26T08:02:09.660Z,38.70
2019-04-26T08:07:28.012Z,39.32
2019-04-26T08:10:14.801Z,39.52
2019-04-26T08:12:47.188Z,39.38
2019-04-26T08:15:25.115Z,39.38
2019-04-26T08:18:10.803Z,39.27
2019-04-26T08:20:48.317Z,38.83
2019-04-26T08:23:38.506Z,38.59
2019-04-26T08:26:01.951Z,38.01
2019-04-26T08:28:33.591Z,37.59
2019-04-26T08:31:07.511Z,36.72
2019-04-26T08:33:48.513Z,35.57
2019-04-26T08:36:15.442Z,34.73
2019-04-26T08:38:48.877Z,34.45
2019-04-26T08:41:22.164Z,34.33
2019-04-26T08:44:11.853Z,33.54
2019-04-26T08:46:44.279Z,32.73
2019-04-26T08:49:17.601Z,33.21
2019-04-26T08:51:52.187Z,33.61
2019-04-26T08:54:23.947Z,32.77
2019-04-26T08:56:56.249Z,32.34
2019-04-26T08:59:31.542Z,33.23
2019-04-26T09:02:22.173Z,32.04
2019-04-26T09:05:07.901Z,32.21
2019-04-26T09:07:41.946Z,32.62
2019-04-26T09:10:14.264Z,32.24
2019-04-26T09:12:46.555Z,31.81
2019-04-26T09:15:18.819Z,31.04
2019-04-26T09:17:48.221Z,30.77
2019-04-26T09:20:28.189Z,30.66
2019-04-26T09:22:56.592Z,31.05
2019-04-26T09:25:39.331Z,31.77
2019-04-26T09:28:13.227Z,32.03
2019-04-26T09:30:56.286Z,31.59
2019-04-26T09:33:27.322Z,31.22
2019-04-26T09:35:56.690Z,30.68
2019-04-26T09:38:26.260Z,30.66
2019-04-26T09:40:56.287Z,30.30
2019-04-26T09:43:30.848Z,30.38
2019-04-26T09:46:04.801Z,29.88
2019-04-26T09:48:36.807Z,28.49
2019-04-26T09:51:08.335Z,28.49
2019-04-26T09:53:39.468Z,27.58
2019-04-26T09:56:08.807Z,28.16
2019-04-26T09:58:38.198Z,27.78
2019-04-26T10:01:07.666Z,28.50
2019-04-26T10:03:36.987Z,27.47
2019-04-26T10:06:08.156Z,27.19
2019-04-26T10:08:37.860Z,26.95
2019-04-26T10:11:09.621Z,26.39
2019-04-26T10:13:44.810Z,26.19
2019-04-26T10:16:15.813Z,26.17
2019-04-26T10:18:46.812Z,26.15
2019-04-26T10:21:16.268Z,26.46
2019-04-26T10:23:45.623Z,26.69
2019-04-26T10:26:15.088Z,25.88
2019-04-26T10:28:46.792Z,25.59
2019-04-26T10:31:17.192Z,25.18
2019-04-26T10:33:46.900Z,24.97
2019-04-26T10:36:16.280Z,25.36
2019-04-26T10:38:45.583Z,25.07
2019-04-26T10:41:15.012Z,25.08
2019-04-26T10:43:44.425Z,24.87
2019-04-26T10:46:13.783Z,24.45
2019-04-26T10:48:45.432Z,24.44
2019-04-26T10:51:17.472Z,24.75
2019-04-26T10:53:54.104Z,25.06
2019-04-26T10:56:41.636Z,24.98
2019-04-26T10:59:12.657Z,24.99
2019-04-26T11:01:42.196Z,24.36
2019-04-26T11:04:11.767Z,24.20
2019-04-26T11:06:41.222Z,24.30
2019-04-26T11:09:14.199Z,24.54
2019-04-26T11:11:43.718Z,24.39
2019-04-26T11:14:13.035Z,24.26
2019-04-26T11:16:43.861Z,23.59
2019-04-26T11:19:13.303Z,23.70
2019-04-26T11:21:44.131Z,22.81
2019-04-26T11:24:15.189Z,22.79
2019-04-26T11:26:45.473Z,22.72
2019-04-26T11:29:14.839Z,21.97
2019-04-26T11:31:45.681Z,21.40
2019-04-26T11:34:15.302Z,21.58
2019-04-26T11:36:44.804Z,22.05
2019-04-26T11:39:16.198Z,22.66
2019-04-26T11:41:45.585Z,22.46
2019-04-26T11:44:14.945Z,22.38
2019-04-26T11:46:45.365Z,21.92
2019-04-26T11:49:15.122Z,21.42
2019-04-26T11:51:44.481Z,21.59
2019-04-26T11:54:16.935Z,21.58
2019-04-26T11:56:45.090Z,21.36
2019-04-26T11:59:14.494Z,21.64
2019-04-26T12:01:43.902Z,21.32
2019-04-26T12:04:14.953Z,20.66
2019-04-26T12:06:48.637Z,21.09
2019-04-26T12:09:31.915Z,21.63
2019-04-26T12:12:04.848Z,21.81
2019-04-26T12:14:34.389Z,21.18
2019-04-26T12:17:05.062Z,20.86
2019-04-26T12:19:34.738Z,20.15
2019-04-26T12:22:08.149Z,20.15
2019-04-26T12:24:35.286Z,20.90
2019-04-26T12:27:04.691Z,20.92
2019-04-26T12:29:34.190Z,20.53
2019-04-26T12:32:03.593Z,20.48
2019-04-26T12:34:32.814Z,20.61
2019-04-26T12:37:02.184Z,20.37
2019-04-26T12:39:32.333Z,20.25
2019-04-26T12:42:04.336Z,20.13
2019-04-26T12:44:44.580Z,20.51
2019-04-26T12:47:18.293Z,20.65
2019-04-26T12:49:47.746Z,20.21
2019-04-26T12:52:21.223Z,20.35
2019-04-26T12:54:48.186Z,20.40
2019-04-26T12:57:17.481Z,20.58
2019-04-26T12:59:46.945Z,20.57
2019-04-26T13:02:20.681Z,20.48
2019-04-26T13:04:47.531Z,20.41
2019-04-26T13:07:23.950Z,20.72
2019-04-26T13:10:10.259Z,20.79
2019-04-26T13:12:57.486Z,20.60
2019-04-26T13:15:40.212Z,20.20
2019-04-26T13:18:11.271Z,21.03
2019-04-26T13:20:40.814Z,21.27
2019-04-26T13:23:10.177Z,21.34
2019-04-26T13:25:40.755Z,21.26
2019-04-26T13:28:10.094Z,21.47
2019-04-26T13:30:40.059Z,21.50
2019-04-26T13:33:10.086Z,21.77
2019-04-26T13:35:41.388Z,21.29
2019-04-26T13:38:10.522Z,21.17
2019-04-26T13:40:40.799Z,20.78
2019-04-26T13:43:10.165Z,20.63
2019-04-26T13:45:41.168Z,20.53
2019-04-26T13:48:19.284Z,20.54
2019-04-26T13:51:01.389Z,20.68
2019-04-26T13:53:30.639Z,20.70
2019-04-26T13:56:02.084Z,20.84
2019-04-26T13:58:31.015Z,20.88
2019-04-26T14:01:00.415Z,20.93
2019-04-26T14:03:31.639Z,21.07
2019-04-26T14:06:01.029Z,21.37
2019-04-26T14:08:30.798Z,21.04
2019-04-26T14:11:00.213Z,21.17
2019-04-26T14:13:29.659Z,21.15
2019-04-26T14:15:59.167Z,21.07
2019-04-26T14:18:28.576Z,21.58
2019-04-26T14:20:58.948Z,21.39
2019-04-26T14:23:33.441Z,21.37
2019-04-26T14:26:05.319Z,20.83
2019-04-26T14:28:34.780Z,20.60
2019-04-26T14:31:04.222Z,21.09
2019-04-26T14:33:33.581Z,21.56
2019-04-26T14:36:02.927Z,21.71
2019-04-26T14:38:39.340Z,21.45
2019-04-26T14:41:04.643Z,21.52
2019-04-26T14:43:40.854Z,22.10
2019-04-26T14:46:05.657Z,22.34
2019-04-26T14:48:36.318Z,21.88
2019-04-26T14:51:08.227Z,22.33
2019-04-26T14:53:38.037Z,22.84
2019-04-26T14:56:07.546Z,23.06
2019-04-26T14:58:36.815Z,23.10
2019-04-26T15:01:07.831Z,23.39
2019-04-26T15:03:38.891Z,23.29
2019-04-26T15:06:20.070Z,23.57
2019-04-26T15:08:48.891Z,23.67
2019-04-26T15:11:18.471Z,23.71
2019-04-26T15:13:48.330Z,24.28
2019-04-26T15:16:17.615Z,24.45
2019-04-26T15:18:47.020Z,24.63
2019-04-26T15:21:16.665Z,24.42
2019-04-26T15:23:45.972Z,24.38
2019-04-26T15:26:18.559Z,24.62
2019-04-26T15:28:50.356Z,24.50
2019-04-26T15:31:21.724Z,24.70
2019-04-26T15:33:52.993Z,24.70
2019-04-26T15:36:23.260Z,24.53
2019-04-26T15:38:53.529Z,24.89
2019-04-26T15:41:33.809Z,25.18
2019-04-26T15:44:07.802Z,25.02
2019-04-26T15:46:42.569Z,25.23
2019-04-26T15:49:17.312Z,25.67
2019-04-26T15:51:46.539Z,26.31
2019-04-26T15:54:17.858Z,26.63
2019-04-26T15:56:49.280Z,26.71
2019-04-26T15:59:22.723Z,27.46
2019-04-26T16:01:51.850Z,27.39
2019-04-26T16:04:22.213Z,28.21
2019-04-26T16:06:52.769Z,27.69
2019-04-26T16:09:24.658Z,27.97
2019-04-26T16:11:55.272Z,28.17
2019-04-26T16:14:30.967Z,28.28
2019-04-26T16:16:58.336Z,28.31
2019-04-26T16:19:27.837Z,28.37
2019-04-26T16:21:57.300Z,28.40
2019-04-26T16:24:27.906Z,29.01
2019-04-26T16:26:57.854Z,28.89
2019-04-26T16:29:28.896Z,28.93
2019-04-26T16:32:16.950Z,29.16
2019-04-26T16:34:49.045Z,29.37
2019-04-26T16:39:49.603Z,29.57
2019-04-26T16:42:20.245Z,29.71
2019-04-26T16:44:49.626Z,29.87
2019-04-26T16:47:19.036Z,30.25
2019-04-26T16:49:48.407Z,30.09
2019-04-26T16:52:17.792Z,30.05
2019-04-26T16:54:47.148Z,30.28
2019-04-26T16:57:16.622Z,30.23
2019-04-26T16:59:51.063Z,30.23
2019-04-26T17:02:25.646Z,30.31
2019-04-26T17:04:48.244Z,30.18
2019-04-26T17:07:22.034Z,30.50
2019-04-26T17:09:37.221Z,29.44
2019-04-26T17:09:57.688Z,30.84
2019-04-26T17:12:20.579Z,30.77
2019-04-26T17:14:49.886Z,30.34
2019-04-26T17:17:19.199Z,30.51
2019-04-26T17:19:48.564Z,30.40
2019-04-26T17:22:19.611Z,30.43
2019-04-26T17:24:50.628Z,30.71
2019-04-26T17:27:22.843Z,30.75
2019-04-26T17:29:52.804Z,31.02
2019-04-26T17:32:23.217Z,31.36
2019-04-26T17:34:54.592Z,31.44
2019-04-26T17:37:26.582Z,31.40
2019-04-26T17:39:55.512Z,31.44
2019-04-26T17:42:29.260Z,31.42
2019-04-26T17:44:57.643Z,31.25
2019-04-26T17:47:28.282Z,31.16
2019-04-26T17:50:04.546Z,31.54
2019-04-26T17:52:35.783Z,31.64
2019-04-26T17:55:00.552Z,31.92
2019-04-26T17:57:36.558Z,32.12
2019-04-26T18:00:07.446Z,32.15
2019-04-26T18:02:42.174Z,31.71
2019-04-26T18:05:07.241Z,31.42
2019-04-26T18:07:43.290Z,31.31
2019-04-26T18:10:08.435Z,31.11
2019-04-26T18:12:40.962Z,30.53
2019-04-26T18:15:14.341Z,30.47
2019-04-26T18:17:44.198Z,30.45
2019-04-26T18:20:23.393Z,30.43
2019-04-26T18:22:55.445Z,30.54
2019-04-26T18:25:24.808Z,30.37
2019-04-26T18:27:54.515Z,30.43
2019-04-26T18:30:25.555Z,30.36
2019-04-26T18:32:55.007Z,30.36
2019-04-26T18:35:24.522Z,30.52
2019-04-26T18:37:53.926Z,30.37
2019-04-26T18:40:23.490Z,30.38
2019-04-26T18:42:55.022Z,29.92
2019-04-26T18:45:28.885Z,29.77
2019-04-26T18:48:01.039Z,29.73
2019-04-26T18:50:28.399Z,29.25
2019-04-26T18:53:04.585Z,29.39
2019-04-26T18:55:34.562Z,29.10
2019-04-26T18:58:05.613Z,28.67
2019-04-26T19:00:36.826Z,28.22
2019-04-26T19:03:08.885Z,27.61
2019-04-26T19:05:39.471Z,27.14
2019-04-26T19:08:10.261Z,27.00
2019-04-26T19:10:39.601Z,26.73
2019-04-26T19:13:25.611Z,26.53
2019-04-26T19:15:56.648Z,26.52
2019-04-26T19:18:33.601Z,26.50
2019-04-26T19:21:19.102Z,26.13
2019-04-26T19:23:48.508Z,25.92
2019-04-26T19:26:30.098Z,25.58
2019-04-26T19:28:49.008Z,25.86
2019-04-26T19:31:19.274Z,25.94
2019-04-26T19:33:51.704Z,25.85
2019-04-26T19:36:22.694Z,25.89
2019-04-26T19:38:53.143Z,25.99
2019-04-26T19:41:22.842Z,25.83
2019-04-26T19:43:55.422Z,25.67
2019-04-26T19:46:26.420Z,25.83
2019-04-26T19:49:14.428Z,25.94
2019-04-26T19:51:45.160Z,26.05
2019-04-26T19:54:27.677Z,26.30
2019-04-26T19:57:12.734Z,26.31
2019-04-26T19:59:42.379Z,26.45
2019-04-26T20:02:12.790Z,26.44
2019-04-26T20:04:42.399Z,26.61
2019-04-26T20:07:11.781Z,26.62
2019-04-26T20:09:41.994Z,26.72
2019-04-26T20:12:12.228Z,27.17
2019-04-26T20:14:49.101Z,27.72
2019-04-26T20:17:19.808Z,28.71
2019-04-26T20:19:47.800Z,29.96
2019-04-26T20:22:15.393Z,30.96
2019-04-26T20:24:48.669Z,32.00
2019-04-26T20:27:20.592Z,32.56
2019-04-26T20:29:47.646Z,33.47
2019-04-26T20:32:34.677Z,34.02
2019-04-26T20:35:19.594Z,34.38
2019-04-26T20:37:48.252Z,35.11
2019-04-26T20:40:22.470Z,35.63
2019-04-26T20:42:49.120Z,36.21
2019-04-26T20:45:18.516Z,36.64
2019-04-26T20:47:51.889Z,37.28
2019-04-26T20:50:18.987Z,37.63
2019-04-26T20:52:55.512Z,37.93
2019-04-26T20:55:25.172Z,38.30
2019-04-26T20:57:52.037Z,38.39
2019-04-26T21:00:22.551Z,38.62
2019-04-26T21:02:54.186Z,38.87
2019-04-26T21:05:24.037Z,39.08
2019-04-26T21:07:55.060Z,39.27
2019-04-26T21:10:25.714Z,39.24
2019-04-26T21:12:55.327Z,39.39
2019-04-26T21:15:26.447Z,39.54
2019-04-26T21:17:56.754Z,39.77
2019-04-26T21:20:27.760Z,40.02
2019-04-26T21:23:02.377Z,40.18
2019-04-26T21:25:35.504Z,40.40
2019-04-26T21:28:14.931Z,40.74
2019-04-26T21:30:54.891Z,41.13
2019-04-26T21:33:28.822Z,41.34
2019-04-26T21:36:07.525Z,41.78
2019-04-26T21:38:41.471Z,42.12
2019-04-26T21:41:13.989Z,42.33
2019-04-26T21:44:03.306Z,42.66
2019-04-26T21:46:33.931Z,42.81
2019-04-26T21:49:03.722Z,43.06
2019-04-26T21:51:34.005Z,43.29
2019-04-26T21:54:03.931Z,43.55
2019-04-26T21:56:33.844Z,43.70
2019-04-26T21:59:03.779Z,44.01
2019-04-26T22:01:33.414Z,44.30
2019-04-26T22:04:03.141Z,44.45
2019-04-26T22:06:33.455Z,44.68
2019-04-26T22:09:10.616Z,44.75
2019-04-26T22:11:40.302Z,44.93
2019-04-26T22:14:20.234Z,45.08
2019-04-26T22:16:53.350Z,45.08
2019-04-26T22:19:43.316Z,45.09
2019-04-26T22:22:17.094Z,44.61
2019-04-26T22:24:48.126Z,44.55
2019-04-26T22:27:21.626Z,44.62
2019-04-26T22:29:51.849Z,44.58
2019-04-26T22:32:20.297Z,44.88
2019-04-26T22:34:49.685Z,45.14
2019-04-26T22:37:29.625Z,45.24
2019-04-26T22:39:50.119Z,45.48
2019-04-26T22:42:19.963Z,45.67
2019-04-26T22:45:03.303Z,45.67
2019-04-26T22:47:42.750Z,46.17
2019-04-26T22:50:14.084Z,46.54
2019-04-26T22:52:46.655Z,46.83
2019-04-26T22:55:17.658Z,46.51
2019-04-26T22:57:49.502Z,45.93
2019-04-26T23:00:20.073Z,45.36
2019-04-26T23:02:48.097Z,45.29
2019-04-26T23:05:17.411Z,45.62
2019-04-26T23:07:46.783Z,45.57
2019-04-26T23:10:17.183Z,45.63
2019-04-26T23:12:57.885Z,45.40
2019-04-26T23:15:31.181Z,45.34
2019-04-26T23:18:03.717Z,45.16
2019-04-26T23:20:44.556Z,43.84
2019-04-26T23:23:13.963Z,43.65
2019-04-26T23:25:43.569Z,43.18
2019-04-26T23:28:12.992Z,43.26
2019-04-26T23:30:46.272Z,43.30
2019-04-26T23:33:15.567Z,43.23
2019-04-26T23:35:47.566Z,43.37
2019-04-26T23:38:16.188Z,43.44
2019-04-26T23:40:45.549Z,43.48
2019-04-26T23:43:14.856Z,43.56
2019-04-26T23:45:48.323Z,43.81
2019-04-26T23:48:15.459Z,44.15
2019-04-26T23:50:44.748Z,44.75
2019-04-26T23:53:14.143Z,45.15
2019-04-26T23:55:45.205Z,46.21
2019-04-26T23:58:14.753Z,47.09
